Leighton, Alabama
Current Conditions -  °F | °C
As of 5:53 AM on Thursday 23 Oct 2014 (Local Time) from KMSL Reporting Station
Clear Clear  
Wind Chill: 41°   Ceiling: Unl
Heat Index: 44°   Visibility: 10mi
Dew Point: 40°   Wind: 6mph
Humidity: 85%   Direction: 60°ENE
Pressure: 30.19"   Gusts: NA
Location:  34.7°N, 87.53°W
Report Text: KMSL 231053Z AUTO 06005KT 10SM CLR 07/04 A3019 RMK AO2 SLP223 T00670044 $
Loading
Personal Weather Stations






























Interactive Weather Map
Tropical Storm Tracking
New forecast layout! Learn more

10-Day Weather Forecast

Advertisements
Track Severe Weather on mobile